sensor_id;sensor_type;location;lat;lon;timestamp;temperature;humidity
74657;DHT22;63185;45.642;13.764;2023-05-14T00:01:27;17.60;61.70
74657;DHT22;63185;45.642;13.764;2023-05-14T00:03:53;17.60;61.50
74657;DHT22;63185;45.642;13.764;2023-05-14T00:06:18;17.70;61.50
74657;DHT22;63185;45.642;13.764;2023-05-14T00:08:44;17.70;61.10
74657;DHT22;63185;45.642;13.764;2023-05-14T00:11:10;17.60;61.10
74657;DHT22;63185;45.642;13.764;2023-05-14T00:13:35;17.70;61.00
74657;DHT22;63185;45.642;13.764;2023-05-14T00:16:01;17.70;60.80
74657;DHT22;63185;45.642;13.764;2023-05-14T00:18:27;17.70;61.00
74657;DHT22;63185;45.642;13.764;2023-05-14T00:20:53;17.60;61.60
74657;DHT22;63185;45.642;13.764;2023-05-14T00:23:20;17.70;60.70
74657;DHT22;63185;45.642;13.764;2023-05-14T00:25:46;17.70;60.40
74657;DHT22;63185;45.642;13.764;2023-05-14T00:28:12;17.70;60.60
74657;DHT22;63185;45.642;13.764;2023-05-14T00:30:37;17.80;60.40
74657;DHT22;63185;45.642;13.764;2023-05-14T00:33:04;17.80;60.40
74657;DHT22;63185;45.642;13.764;2023-05-14T00:35:30;17.80;60.60
74657;DHT22;63185;45.642;13.764;2023-05-14T00:37:56;17.80;60.80
74657;DHT22;63185;45.642;13.764;2023-05-14T00:40:26;17.80;60.90
74657;DHT22;63185;45.642;13.764;2023-05-14T00:42:52;17.70;60.80
74657;DHT22;63185;45.642;13.764;2023-05-14T00:45:18;17.80;60.30
74657;DHT22;63185;45.642;13.764;2023-05-14T00:47:43;17.80;60.30
74657;DHT22;63185;45.642;13.764;2023-05-14T00:50:10;17.80;60.40
74657;DHT22;63185;45.642;13.764;2023-05-14T00:52:40;17.70;60.40
74657;DHT22;63185;45.642;13.764;2023-05-14T00:55:06;17.70;60.60
74657;DHT22;63185;45.642;13.764;2023-05-14T00:57:33;17.70;61.40
74657;DHT22;63185;45.642;13.764;2023-05-14T01:00:01;17.70;61.40
74657;DHT22;63185;45.642;13.764;2023-05-14T01:02:27;17.60;62.10
74657;DHT22;63185;45.642;13.764;2023-05-14T01:04:53;17.70;63.00
74657;DHT22;63185;45.642;13.764;2023-05-14T01:10:41;17.60;64.50
74657;DHT22;63185;45.642;13.764;2023-05-14T01:13:27;17.50;65.60
74657;DHT22;63185;45.642;13.764;2023-05-14T01:15:55;17.40;66.10
74657;DHT22;63185;45.642;13.764;2023-05-14T01:18:24;17.40;66.90
74657;DHT22;63185;45.642;13.764;2023-05-14T01:20:50;17.30;66.80
74657;DHT22;63185;45.642;13.764;2023-05-14T01:23:18;17.20;67.10
74657;DHT22;63185;45.642;13.764;2023-05-14T01:25:44;17.20;67.20
74657;DHT22;63185;45.642;13.764;2023-05-14T01:28:19;17.10;67.60
74657;DHT22;63185;45.642;13.764;2023-05-14T01:31:11;17.10;67.50
74657;DHT22;63185;45.642;13.764;2023-05-14T01:33:41;17.10;67.80
74657;DHT22;63185;45.642;13.764;2023-05-14T01:36:08;17.00;67.40
74657;DHT22;63185;45.642;13.764;2023-05-14T01:38:35;17.00;68.10
74657;DHT22;63185;45.642;13.764;2023-05-14T01:41:02;16.90;67.90
74657;DHT22;63185;45.642;13.764;2023-05-14T01:43:29;16.80;68.50
74657;DHT22;63185;45.642;13.764;2023-05-14T01:45:55;16.90;67.90
74657;DHT22;63185;45.642;13.764;2023-05-14T01:48:21;17.00;68.10
74657;DHT22;63185;45.642;13.764;2023-05-14T01:50:47;17.00;67.40
74657;DHT22;63185;45.642;13.764;2023-05-14T01:53:13;17.00;67.50
74657;DHT22;63185;45.642;13.764;2023-05-14T01:55:38;17.00;66.90
74657;DHT22;63185;45.642;13.764;2023-05-14T01:58:04;17.00;67.50
74657;DHT22;63185;45.642;13.764;2023-05-14T02:00:30;17.00;67.30
74657;DHT22;63185;45.642;13.764;2023-05-14T02:02:56;17.10;67.40
74657;DHT22;63185;45.642;13.764;2023-05-14T02:05:22;17.10;67.50
74657;DHT22;63185;45.642;13.764;2023-05-14T02:07:47;17.10;66.90
74657;DHT22;63185;45.642;13.764;2023-05-14T02:10:13;17.00;66.80
74657;DHT22;63185;45.642;13.764;2023-05-14T02:12:39;17.00;66.50
74657;DHT22;63185;45.642;13.764;2023-05-14T02:15:05;17.10;66.40
74657;DHT22;63185;45.642;13.764;2023-05-14T02:17:31;17.10;66.50
74657;DHT22;63185;45.642;13.764;2023-05-14T02:19:57;17.20;65.60
74657;DHT22;63185;45.642;13.764;2023-05-14T02:22:22;17.20;65.80
74657;DHT22;63185;45.642;13.764;2023-05-14T02:24:48;17.10;66.70
74657;DHT22;63185;45.642;13.764;2023-05-14T02:27:16;17.10;66.40
74657;DHT22;63185;45.642;13.764;2023-05-14T02:29:43;17.10;66.60
74657;DHT22;63185;45.642;13.764;2023-05-14T02:32:09;17.00;66.60
74657;DHT22;63185;45.642;13.764;2023-05-14T02:34:34;17.10;66.30
74657;DHT22;63185;45.642;13.764;2023-05-14T02:37:00;17.10;66.50
74657;DHT22;63185;45.642;13.764;2023-05-14T02:39:26;17.10;66.40
74657;DHT22;63185;45.642;13.764;2023-05-14T02:41:52;17.10;66.50
74657;DHT22;63185;45.642;13.764;2023-05-14T02:44:17;17.10;66.50
74657;DHT22;63185;45.642;13.764;2023-05-14T02:46:43;17.10;67.10
74657;DHT22;63185;45.642;13.764;2023-05-14T02:49:09;17.20;67.00
74657;DHT22;63185;45.642;13.764;2023-05-14T02:51:34;17.10;67.20
74657;DHT22;63185;45.642;13.764;2023-05-14T02:54:00;17.10;66.80
74657;DHT22;63185;45.642;13.764;2023-05-14T02:56:25;17.10;66.90
74657;DHT22;63185;45.642;13.764;2023-05-14T02:58:51;17.10;67.60
74657;DHT22;63185;45.642;13.764;2023-05-14T03:01:17;17.20;68.30
74657;DHT22;63185;45.642;13.764;2023-05-14T03:03:43;17.10;68.10
74657;DHT22;63185;45.642;13.764;2023-05-14T03:06:09;17.10;68.80
74657;DHT22;63185;45.642;13.764;2023-05-14T03:08:35;17.10;69.10
74657;DHT22;63185;45.642;13.764;2023-05-14T03:11:01;17.10;69.90
74657;DHT22;63185;45.642;13.764;2023-05-14T03:13:26;17.00;70.50
74657;DHT22;63185;45.642;13.764;2023-05-14T03:15:52;16.90;70.00
74657;DHT22;63185;45.642;13.764;2023-05-14T03:18:20;16.80;71.00
74657;DHT22;63185;45.642;13.764;2023-05-14T03:20:46;16.90;70.70
74657;DHT22;63185;45.642;13.764;2023-05-14T03:23:12;16.70;71.80
74657;DHT22;63185;45.642;13.764;2023-05-14T03:25:38;16.60;73.10
74657;DHT22;63185;45.642;13.764;2023-05-14T03:28:03;16.60;72.70
74657;DHT22;63185;45.642;13.764;2023-05-14T03:30:29;16.60;74.20
74657;DHT22;63185;45.642;13.764;2023-05-14T03:32:55;16.60;73.60
74657;DHT22;63185;45.642;13.764;2023-05-14T03:35:21;16.50;74.60
74657;DHT22;63185;45.642;13.764;2023-05-14T03:37:46;16.50;74.40
74657;DHT22;63185;45.642;13.764;2023-05-14T03:40:12;16.50;74.30
74657;DHT22;63185;45.642;13.764;2023-05-14T03:42:38;16.50;73.10
74657;DHT22;63185;45.642;13.764;2023-05-14T03:45:04;16.50;73.80
74657;DHT22;63185;45.642;13.764;2023-05-14T03:47:30;16.50;73.10
74657;DHT22;63185;45.642;13.764;2023-05-14T03:49:56;16.50;73.70
74657;DHT22;63185;45.642;13.764;2023-05-14T03:52:22;16.40;72.80
74657;DHT22;63185;45.642;13.764;2023-05-14T03:54:47;16.40;72.90
74657;DHT22;63185;45.642;13.764;2023-05-14T03:57:13;16.30;73.40
74657;DHT22;63185;45.642;13.764;2023-05-14T03:59:39;16.20;74.60
74657;DHT22;63185;45.642;13.764;2023-05-14T04:02:04;16.20;74.20
74657;DHT22;63185;45.642;13.764;2023-05-14T04:04:30;16.10;74.20
74657;DHT22;63185;45.642;13.764;2023-05-14T04:06:56;16.20;74.20
74657;DHT22;63185;45.642;13.764;2023-05-14T04:09:21;16.20;74.20
74657;DHT22;63185;45.642;13.764;2023-05-14T04:11:48;16.10;74.00
74657;DHT22;63185;45.642;13.764;2023-05-14T04:14:13;16.10;72.60
74657;DHT22;63185;45.642;13.764;2023-05-14T04:16:39;16.20;73.50
74657;DHT22;63185;45.642;13.764;2023-05-14T04:19:06;16.10;72.90
74657;DHT22;63185;45.642;13.764;2023-05-14T04:21:31;16.10;73.60
74657;DHT22;63185;45.642;13.764;2023-05-14T04:23:57;16.10;73.00
74657;DHT22;63185;45.642;13.764;2023-05-14T04:26:23;16.10;72.40
74657;DHT22;63185;45.642;13.764;2023-05-14T04:28:48;16.10;73.60
74657;DHT22;63185;45.642;13.764;2023-05-14T04:31:14;16.30;73.20
74657;DHT22;63185;45.642;13.764;2023-05-14T04:33:43;16.30;72.50
74657;DHT22;63185;45.642;13.764;2023-05-14T04:36:09;16.30;73.60
74657;DHT22;63185;45.642;13.764;2023-05-14T04:38:34;16.30;71.30
74657;DHT22;63185;45.642;13.764;2023-05-14T04:41:00;16.40;71.90
74657;DHT22;63185;45.642;13.764;2023-05-14T04:43:26;16.40;70.20
74657;DHT22;63185;45.642;13.764;2023-05-14T04:45:52;16.50;71.10
74657;DHT22;63185;45.642;13.764;2023-05-14T04:48:18;16.40;70.70
74657;DHT22;63185;45.642;13.764;2023-05-14T04:50:43;16.60;70.50
74657;DHT22;63185;45.642;13.764;2023-05-14T04:53:09;16.50;69.00
74657;DHT22;63185;45.642;13.764;2023-05-14T04:55:35;16.60;70.20
74657;DHT22;63185;45.642;13.764;2023-05-14T04:58:01;16.60;67.80
74657;DHT22;63185;45.642;13.764;2023-05-14T05:00:27;16.60;68.80
74657;DHT22;63185;45.642;13.764;2023-05-14T05:02:53;16.60;68.60
74657;DHT22;63185;45.642;13.764;2023-05-14T05:05:19;16.70;67.40
74657;DHT22;63185;45.642;13.764;2023-05-14T05:07:45;16.70;69.00
74657;DHT22;63185;45.642;13.764;2023-05-14T05:10:11;16.70;68.30
74657;DHT22;63185;45.642;13.764;2023-05-14T05:12:37;16.70;69.10
74657;DHT22;63185;45.642;13.764;2023-05-14T05:15:04;16.70;67.60
74657;DHT22;63185;45.642;13.764;2023-05-14T05:17:29;16.70;68.20
74657;DHT22;63185;45.642;13.764;2023-05-14T05:19:55;16.80;68.00
74657;DHT22;63185;45.642;13.764;2023-05-14T05:22:22;16.80;68.30
74657;DHT22;63185;45.642;13.764;2023-05-14T05:24:47;16.80;67.90
74657;DHT22;63185;45.642;13.764;2023-05-14T05:27:13;16.90;68.30
74657;DHT22;63185;45.642;13.764;2023-05-14T05:29:39;16.70;69.00
74657;DHT22;63185;45.642;13.764;2023-05-14T05:32:06;16.90;67.70
74657;DHT22;63185;45.642;13.764;2023-05-14T05:34:31;16.80;68.50
74657;DHT22;63185;45.642;13.764;2023-05-14T05:36:57;16.90;67.10
74657;DHT22;63185;45.642;13.764;2023-05-14T05:39:23;16.90;67.40
74657;DHT22;63185;45.642;13.764;2023-05-14T05:41:49;17.00;67.10
74657;DHT22;63185;45.642;13.764;2023-05-14T05:44:15;17.00;66.00
74657;DHT22;63185;45.642;13.764;2023-05-14T05:46:40;17.00;66.50
74657;DHT22;63185;45.642;13.764;2023-05-14T05:49:06;17.00;65.90
74657;DHT22;63185;45.642;13.764;2023-05-14T05:51:32;17.00;66.60
74657;DHT22;63185;45.642;13.764;2023-05-14T05:53:58;17.00;65.50
74657;DHT22;63185;45.642;13.764;2023-05-14T05:56:23;17.10;66.50
74657;DHT22;63185;45.642;13.764;2023-05-14T05:58:49;17.10;66.50
74657;DHT22;63185;45.642;13.764;2023-05-14T06:01:15;17.10;67.10
74657;DHT22;63185;45.642;13.764;2023-05-14T06:03:40;16.90;67.50
74657;DHT22;63185;45.642;13.764;2023-05-14T06:06:06;16.90;67.90
74657;DHT22;63185;45.642;13.764;2023-05-14T06:08:32;17.00;66.80
74657;DHT22;63185;45.642;13.764;2023-05-14T06:10:58;17.10;67.00
74657;DHT22;63185;45.642;13.764;2023-05-14T06:13:23;17.20;66.10
74657;DHT22;63185;45.642;13.764;2023-05-14T06:15:49;17.30;65.70
74657;DHT22;63185;45.642;13.764;2023-05-14T06:18:15;17.30;66.20
74657;DHT22;63185;45.642;13.764;2023-05-14T06:20:41;17.30;65.30
74657;DHT22;63185;45.642;13.764;2023-05-14T06:23:07;17.40;65.10
74657;DHT22;63185;45.642;13.764;2023-05-14T06:25:33;17.50;65.10
74657;DHT22;63185;45.642;13.764;2023-05-14T06:27:58;17.50;64.80
74657;DHT22;63185;45.642;13.764;2023-05-14T06:30:24;17.40;64.90
74657;DHT22;63185;45.642;13.764;2023-05-14T06:32:50;17.50;64.60
74657;DHT22;63185;45.642;13.764;2023-05-14T06:35:17;17.50;64.70
74657;DHT22;63185;45.642;13.764;2023-05-14T06:37:43;17.60;64.30
74657;DHT22;63185;45.642;13.764;2023-05-14T06:40:10;17.70;64.00
74657;DHT22;63185;45.642;13.764;2023-05-14T06:42:36;17.70;63.60
74657;DHT22;63185;45.642;13.764;2023-05-14T06:45:03;17.70;63.50
74657;DHT22;63185;45.642;13.764;2023-05-14T06:47:29;17.80;63.10
74657;DHT22;63185;45.642;13.764;2023-05-14T06:49:54;17.80;62.90
74657;DHT22;63185;45.642;13.764;2023-05-14T06:52:23;18.00;62.20
74657;DHT22;63185;45.642;13.764;2023-05-14T06:54:49;18.00;62.50
74657;DHT22;63185;45.642;13.764;2023-05-14T06:57:14;17.90;62.40
74657;DHT22;63185;45.642;13.764;2023-05-14T06:59:40;17.70;62.80
74657;DHT22;63185;45.642;13.764;2023-05-14T07:02:06;17.70;62.40
74657;DHT22;63185;45.642;13.764;2023-05-14T07:04:31;17.70;62.30
74657;DHT22;63185;45.642;13.764;2023-05-14T07:06:57;17.70;62.00
74657;DHT22;63185;45.642;13.764;2023-05-14T07:09:23;17.70;62.20
74657;DHT22;63185;45.642;13.764;2023-05-14T07:11:49;17.70;62.20
74657;DHT22;63185;45.642;13.764;2023-05-14T07:14:14;17.70;61.40
74657;DHT22;63185;45.642;13.764;2023-05-14T07:16:40;17.80;61.20
74657;DHT22;63185;45.642;13.764;2023-05-14T07:19:12;17.80;61.50
74657;DHT22;63185;45.642;13.764;2023-05-14T07:21:38;17.80;61.20
74657;DHT22;63185;45.642;13.764;2023-05-14T07:24:04;17.70;61.40
74657;DHT22;63185;45.642;13.764;2023-05-14T07:26:30;17.80;61.20
74657;DHT22;63185;45.642;13.764;2023-05-14T07:28:56;17.90;60.60
74657;DHT22;63185;45.642;13.764;2023-05-14T07:31:21;18.00;60.70
74657;DHT22;63185;45.642;13.764;2023-05-14T07:33:47;18.10;60.10
74657;DHT22;63185;45.642;13.764;2023-05-14T07:36:13;18.10;60.30
74657;DHT22;63185;45.642;13.764;2023-05-14T07:38:38;18.30;59.90
74657;DHT22;63185;45.642;13.764;2023-05-14T07:41:04;18.40;60.10
74657;DHT22;63185;45.642;13.764;2023-05-14T07:43:30;18.30;59.30
74657;DHT22;63185;45.642;13.764;2023-05-14T07:45:56;18.20;59.60
74657;DHT22;63185;45.642;13.764;2023-05-14T07:48:22;18.10;59.50
74657;DHT22;63185;45.642;13.764;2023-05-14T07:50:48;18.10;60.00
74657;DHT22;63185;45.642;13.764;2023-05-14T07:53:14;18.10;60.00
74657;DHT22;63185;45.642;13.764;2023-05-14T07:55:39;18.20;59.80
74657;DHT22;63185;45.642;13.764;2023-05-14T07:58:06;18.10;59.90
74657;DHT22;63185;45.642;13.764;2023-05-14T08:00:35;18.00;60.40
74657;DHT22;63185;45.642;13.764;2023-05-14T08:03:01;18.10;60.30
74657;DHT22;63185;45.642;13.764;2023-05-14T08:05:27;18.10;60.10
74657;DHT22;63185;45.642;13.764;2023-05-14T08:07:52;18.20;60.80
74657;DHT22;63185;45.642;13.764;2023-05-14T08:10:18;18.20;60.20
74657;DHT22;63185;45.642;13.764;2023-05-14T08:12:44;18.40;59.70
74657;DHT22;63185;45.642;13.764;2023-05-14T08:15:11;18.40;59.50
74657;DHT22;63185;45.642;13.764;2023-05-14T08:17:36;18.60;58.90
74657;DHT22;63185;45.642;13.764;2023-05-14T08:20:02;18.50;59.40
74657;DHT22;63185;45.642;13.764;2023-05-14T08:22:32;18.60;59.00
74657;DHT22;63185;45.642;13.764;2023-05-14T08:24:57;18.40;58.90
74657;DHT22;63185;45.642;13.764;2023-05-14T08:27:24;18.40;58.90
74657;DHT22;63185;45.642;13.764;2023-05-14T08:29:50;18.30;59.60
74657;DHT22;63185;45.642;13.764;2023-05-14T08:32:16;18.30;59.70
74657;DHT22;63185;45.642;13.764;2023-05-14T08:34:42;18.30;59.80
74657;DHT22;63185;45.642;13.764;2023-05-14T08:37:07;18.30;59.40
74657;DHT22;63185;45.642;13.764;2023-05-14T08:39:33;18.30;59.80
74657;DHT22;63185;45.642;13.764;2023-05-14T08:41:59;18.40;60.10
74657;DHT22;63185;45.642;13.764;2023-05-14T08:44:38;18.30;60.50
74657;DHT22;63185;45.642;13.764;2023-05-14T08:47:10;18.40;60.40
74657;DHT22;63185;45.642;13.764;2023-05-14T08:49:46;18.40;60.20
74657;DHT22;63185;45.642;13.764;2023-05-14T08:52:15;18.30;59.90
74657;DHT22;63185;45.642;13.764;2023-05-14T08:54:43;18.40;60.00
74657;DHT22;63185;45.642;13.764;2023-05-14T08:57:10;18.50;60.00
74657;DHT22;63185;45.642;13.764;2023-05-14T08:59:36;18.50;59.50
74657;DHT22;63185;45.642;13.764;2023-05-14T09:02:02;18.70;59.50
74657;DHT22;63185;45.642;13.764;2023-05-14T09:04:30;18.70;59.00
74657;DHT22;63185;45.642;13.764;2023-05-14T09:06:58;18.60;59.00
74657;DHT22;63185;45.642;13.764;2023-05-14T09:09:26;18.60;59.40
74657;DHT22;63185;45.642;13.764;2023-05-14T09:11:53;18.50;59.40
74657;DHT22;63185;45.642;13.764;2023-05-14T09:14:19;18.40;59.40
74657;DHT22;63185;45.642;13.764;2023-05-14T09:16:47;18.40;60.00
74657;DHT22;63185;45.642;13.764;2023-05-14T09:19:14;18.50;59.20
74657;DHT22;63185;45.642;13.764;2023-05-14T09:21:40;18.50;59.80
74657;DHT22;63185;45.642;13.764;2023-05-14T09:24:06;18.40;61.40
74657;DHT22;63185;45.642;13.764;2023-05-14T09:26:33;18.30;62.50
74657;DHT22;63185;45.642;13.764;2023-05-14T09:29:00;18.20;63.70
74657;DHT22;63185;45.642;13.764;2023-05-14T09:31:29;17.90;65.60
74657;DHT22;63185;45.642;13.764;2023-05-14T09:33:56;17.80;66.00
74657;DHT22;63185;45.642;13.764;2023-05-14T09:36:22;17.60;68.10
74657;DHT22;63185;45.642;13.764;2023-05-14T09:38:49;17.60;67.80
74657;DHT22;63185;45.642;13.764;2023-05-14T09:41:15;17.50;68.70
74657;DHT22;63185;45.642;13.764;2023-05-14T09:43:41;17.40;68.50
74657;DHT22;63185;45.642;13.764;2023-05-14T09:46:07;17.30;69.20
74657;DHT22;63185;45.642;13.764;2023-05-14T09:48:32;17.10;70.40
74657;DHT22;63185;45.642;13.764;2023-05-14T09:50:58;17.10;71.20
74657;DHT22;63185;45.642;13.764;2023-05-14T09:53:24;16.90;72.40
74657;DHT22;63185;45.642;13.764;2023-05-14T09:55:50;16.80;73.20
74657;DHT22;63185;45.642;13.764;2023-05-14T09:58:16;16.60;73.90
74657;DHT22;63185;45.642;13.764;2023-05-14T10:00:45;16.50;73.60
74657;DHT22;63185;45.642;13.764;2023-05-14T10:03:13;16.50;74.90
74657;DHT22;63185;45.642;13.764;2023-05-14T10:05:41;16.50;75.30
74657;DHT22;63185;45.642;13.764;2023-05-14T10:08:19;16.40;74.30
74657;DHT22;63185;45.642;13.764;2023-05-14T10:10:48;16.40;74.30
74657;DHT22;63185;45.642;13.764;2023-05-14T10:13:18;16.40;74.20
74657;DHT22;63185;45.642;13.764;2023-05-14T10:15:52;16.50;74.60
74657;DHT22;63185;45.642;13.764;2023-05-14T10:18:22;16.40;74.30
74657;DHT22;63185;45.642;13.764;2023-05-14T10:20:59;16.40;74.00
74657;DHT22;63185;45.642;13.764;2023-05-14T10:23:28;16.40;75.00
74657;DHT22;63185;45.642;13.764;2023-05-14T10:25:55;16.40;75.00
74657;DHT22;63185;45.642;13.764;2023-05-14T10:28:21;16.50;73.50
74657;DHT22;63185;45.642;13.764;2023-05-14T10:30:48;16.50;74.60
74657;DHT22;63185;45.642;13.764;2023-05-14T10:33:15;16.40;76.50
74657;DHT22;63185;45.642;13.764;2023-05-14T10:36:04;16.50;76.80
74657;DHT22;63185;45.642;13.764;2023-05-14T10:38:35;16.50;76.50
74657;DHT22;63185;45.642;13.764;2023-05-14T10:41:05;16.40;77.90
74657;DHT22;63185;45.642;13.764;2023-05-14T10:43:37;16.40;76.70
74657;DHT22;63185;45.642;13.764;2023-05-14T10:46:03;16.40;77.90
74657;DHT22;63185;45.642;13.764;2023-05-14T10:48:29;16.50;78.10
74657;DHT22;63185;45.642;13.764;2023-05-14T10:50:55;16.40;78.60
74657;DHT22;63185;45.642;13.764;2023-05-14T10:53:32;16.30;75.30
74657;DHT22;63185;45.642;13.764;2023-05-14T10:56:06;16.40;75.50
74657;DHT22;63185;45.642;13.764;2023-05-14T10:58:35;16.50;76.50
74657;DHT22;63185;45.642;13.764;2023-05-14T11:01:01;16.50;78.20
74657;DHT22;63185;45.642;13.764;2023-05-14T11:03:30;16.60;77.60
74657;DHT22;63185;45.642;13.764;2023-05-14T11:06:02;16.50;75.00
74657;DHT22;63185;45.642;13.764;2023-05-14T11:08:27;16.60;75.80
74657;DHT22;63185;45.642;13.764;2023-05-14T11:10:54;16.80;76.00
74657;DHT22;63185;45.642;13.764;2023-05-14T11:13:20;16.80;76.60
74657;DHT22;63185;45.642;13.764;2023-05-14T11:15:46;16.80;77.30
74657;DHT22;63185;45.642;13.764;2023-05-14T11:18:13;16.90;76.80
74657;DHT22;63185;45.642;13.764;2023-05-14T11:20:39;16.90;76.80
74657;DHT22;63185;45.642;13.764;2023-05-14T11:23:04;17.00;75.90
74657;DHT22;63185;45.642;13.764;2023-05-14T11:25:30;16.90;75.20
74657;DHT22;63185;45.642;13.764;2023-05-14T11:27:56;16.80;76.60
74657;DHT22;63185;45.642;13.764;2023-05-14T11:30:25;16.80;77.00
74657;DHT22;63185;45.642;13.764;2023-05-14T11:32:51;16.90;77.10
74657;DHT22;63185;45.642;13.764;2023-05-14T11:35:18;16.90;76.30
74657;DHT22;63185;45.642;13.764;2023-05-14T11:37:50;16.90;77.40
74657;DHT22;63185;45.642;13.764;2023-05-14T11:40:19;16.90;78.10
74657;DHT22;63185;45.642;13.764;2023-05-14T11:42:45;16.90;77.90
74657;DHT22;63185;45.642;13.764;2023-05-14T11:45:11;16.80;76.60
74657;DHT22;63185;45.642;13.764;2023-05-14T11:47:38;16.60;74.70
74657;DHT22;63185;45.642;13.764;2023-05-14T11:50:05;16.80;76.80
74657;DHT22;63185;45.642;13.764;2023-05-14T11:52:38;16.90;76.80
74657;DHT22;63185;45.642;13.764;2023-05-14T11:55:05;17.00;76.40
74657;DHT22;63185;45.642;13.764;2023-05-14T11:57:30;17.10;75.30
74657;DHT22;63185;45.642;13.764;2023-05-14T11:59:56;17.20;75.10
74657;DHT22;63185;45.642;13.764;2023-05-14T12:02:22;17.20;74.00
74657;DHT22;63185;45.642;13.764;2023-05-14T12:04:51;17.20;74.30
74657;DHT22;63185;45.642;13.764;2023-05-14T12:07:17;16.80;75.70
74657;DHT22;63185;45.642;13.764;2023-05-14T12:09:47;16.70;76.90
74657;DHT22;63185;45.642;13.764;2023-05-14T12:12:16;16.70;76.70
74657;DHT22;63185;45.642;13.764;2023-05-14T12:14:42;16.60;75.80
74657;DHT22;63185;45.642;13.764;2023-05-14T12:17:14;16.70;77.10
74657;DHT22;63185;45.642;13.764;2023-05-14T12:19:42;16.70;77.20
74657;DHT22;63185;45.642;13.764;2023-05-14T12:22:09;16.70;75.50
74657;DHT22;63185;45.642;13.764;2023-05-14T12:24:35;16.60;78.10
74657;DHT22;63185;45.642;13.764;2023-05-14T12:27:01;16.50;77.40
74657;DHT22;63185;45.642;13.764;2023-05-14T12:29:27;16.40;78.30
74657;DHT22;63185;45.642;13.764;2023-05-14T12:31:56;16.40;78.50
74657;DHT22;63185;45.642;13.764;2023-05-14T12:34:25;16.20;78.90
74657;DHT22;63185;45.642;13.764;2023-05-14T12:36:50;16.10;79.40
74657;DHT22;63185;45.642;13.764;2023-05-14T12:39:16;16.00;80.40
74657;DHT22;63185;45.642;13.764;2023-05-14T12:41:42;15.90;80.10
74657;DHT22;63185;45.642;13.764;2023-05-14T12:44:08;15.70;80.30
74657;DHT22;63185;45.642;13.764;2023-05-14T12:46:34;15.70;81.00
74657;DHT22;63185;45.642;13.764;2023-05-14T12:48:59;15.80;81.00
74657;DHT22;63185;45.642;13.764;2023-05-14T12:51:25;15.60;81.50
74657;DHT22;63185;45.642;13.764;2023-05-14T12:53:51;15.60;82.40
74657;DHT22;63185;45.642;13.764;2023-05-14T12:56:19;15.40;82.50
74657;DHT22;63185;45.642;13.764;2023-05-14T12:58:46;15.10;83.60
74657;DHT22;63185;45.642;13.764;2023-05-14T13:01:11;15.00;84.30
74657;DHT22;63185;45.642;13.764;2023-05-14T13:03:37;15.00;84.20
74657;DHT22;63185;45.642;13.764;2023-05-14T13:06:03;15.10;83.50
74657;DHT22;63185;45.642;13.764;2023-05-14T13:08:29;15.10;83.70
74657;DHT22;63185;45.642;13.764;2023-05-14T13:10:55;15.10;83.80
74657;DHT22;63185;45.642;13.764;2023-05-14T13:13:21;15.00;83.90
74657;DHT22;63185;45.642;13.764;2023-05-14T13:15:48;15.20;83.80
74657;DHT22;63185;45.642;13.764;2023-05-14T13:18:14;15.30;83.50
74657;DHT22;63185;45.642;13.764;2023-05-14T13:20:40;15.30;83.40
74657;DHT22;63185;45.642;13.764;2023-05-14T13:23:06;15.30;83.10
74657;DHT22;63185;45.642;13.764;2023-05-14T13:25:32;15.40;83.00
74657;DHT22;63185;45.642;13.764;2023-05-14T13:27:58;15.30;83.30
74657;DHT22;63185;45.642;13.764;2023-05-14T13:30:23;15.20;82.80
74657;DHT22;63185;45.642;13.764;2023-05-14T13:32:49;15.20;83.30
74657;DHT22;63185;45.642;13.764;2023-05-14T13:35:16;15.20;83.20
74657;DHT22;63185;45.642;13.764;2023-05-14T13:37:43;15.10;83.10
74657;DHT22;63185;45.642;13.764;2023-05-14T13:40:09;15.30;83.30
74657;DHT22;63185;45.642;13.764;2023-05-14T13:42:35;15.40;82.70
74657;DHT22;63185;45.642;13.764;2023-05-14T13:45:01;15.40;82.70
74657;DHT22;63185;45.642;13.764;2023-05-14T13:47:28;15.60;82.10
74657;DHT22;63185;45.642;13.764;2023-05-14T13:49:54;15.70;81.50
74657;DHT22;63185;45.642;13.764;2023-05-14T13:52:21;16.00;80.20
74657;DHT22;63185;45.642;13.764;2023-05-14T13:54:47;16.10;79.10
74657;DHT22;63185;45.642;13.764;2023-05-14T13:57:13;16.30;78.90
74657;DHT22;63185;45.642;13.764;2023-05-14T13:59:38;16.20;80.10
74657;DHT22;63185;45.642;13.764;2023-05-14T14:02:04;15.90;80.50
74657;DHT22;63185;45.642;13.764;2023-05-14T14:04:30;15.80;80.80
74657;DHT22;63185;45.642;13.764;2023-05-14T14:06:58;15.80;80.50
74657;DHT22;63185;45.642;13.764;2023-05-14T14:09:24;15.90;80.80
74657;DHT22;63185;45.642;13.764;2023-05-14T14:11:50;16.00;80.90
74657;DHT22;63185;45.642;13.764;2023-05-14T14:14:16;16.00;80.60
74657;DHT22;63185;45.642;13.764;2023-05-14T14:16:43;16.00;80.20
74657;DHT22;63185;45.642;13.764;2023-05-14T14:19:09;16.00;80.50
74657;DHT22;63185;45.642;13.764;2023-05-14T14:21:35;15.90;81.30
74657;DHT22;63185;45.642;13.764;2023-05-14T14:24:04;15.90;81.90
74657;DHT22;63185;45.642;13.764;2023-05-14T14:26:30;15.80;81.80
74657;DHT22;63185;45.642;13.764;2023-05-14T14:28:56;15.90;81.90
74657;DHT22;63185;45.642;13.764;2023-05-14T14:31:24;15.90;82.60
74657;DHT22;63185;45.642;13.764;2023-05-14T14:33:50;15.90;82.10
74657;DHT22;63185;45.642;13.764;2023-05-14T14:36:16;16.00;82.00
74657;DHT22;63185;45.642;13.764;2023-05-14T14:38:42;16.00;82.10
74657;DHT22;63185;45.642;13.764;2023-05-14T14:41:08;15.90;81.80
74657;DHT22;63185;45.642;13.764;2023-05-14T14:43:36;16.00;81.80
74657;DHT22;63185;45.642;13.764;2023-05-14T14:46:02;16.00;81.80
74657;DHT22;63185;45.642;13.764;2023-05-14T14:48:32;16.10;81.30
74657;DHT22;63185;45.642;13.764;2023-05-14T14:51:02;16.10;81.30
74657;DHT22;63185;45.642;13.764;2023-05-14T14:53:28;16.40;79.70
74657;DHT22;63185;45.642;13.764;2023-05-14T14:55:54;16.50;79.30
74657;DHT22;63185;45.642;13.764;2023-05-14T14:58:21;16.60;78.60
74657;DHT22;63185;45.642;13.764;2023-05-14T15:00:50;16.80;79.00
74657;DHT22;63185;45.642;13.764;2023-05-14T15:03:16;17.00;78.40
74657;DHT22;63185;45.642;13.764;2023-05-14T15:05:42;16.90;79.00
74657;DHT22;63185;45.642;13.764;2023-05-14T15:08:08;16.90;78.80
74657;DHT22;63185;45.642;13.764;2023-05-14T15:10:34;16.60;78.90
74657;DHT22;63185;45.642;13.764;2023-05-14T15:13:03;16.30;80.50
74657;DHT22;63185;45.642;13.764;2023-05-14T15:15:29;16.10;80.80